Time;durP1;ratioP1;P1;durP2;ratioP2;P2;SDS_P1;SDS_P2;PMS_P1;PMS_P2;Temp;Humidity;BMP_temperature;BMP_pressure;BME280_temperature;BME280_humidity;BME280_pressure;Samples;Min_cycle;Max_cycle;Signal;HPM_P1;HPM_P2
2022/08/02 00:00:57;;;;;;;5.63;2.47;;;18.50;99.90;;;;;;5259930;28;20552;-48
2022/08/02 00:03:28;;;;;;;3.53;2.13;;;18.50;99.90;;;;;;5250660;28;20672;-48
2022/08/02 00:05:58;;;;;;;4.40;2.20;;;18.50;99.90;;;;;;5257405;28;20532;-48
2022/08/02 00:08:29;;;;;;;1.67;1.57;;;18.50;99.90;;;;;;5247104;28;20184;-50
2022/08/02 00:11:00;;;;;;;6.63;2.80;;;18.50;99.90;;;;;;5258764;28;20300;-48
2022/08/02 00:13:30;;;;;;;3.53;2.30;;;18.60;99.90;;;;;;5248176;28;20185;-47
2022/08/02 00:16:01;;;;;;;1.70;1.57;;;18.60;99.90;;;;;;5255785;28;20205;-48
2022/08/02 00:18:32;;;;;;;2.00;1.47;;;18.70;99.90;;;;;;5259539;28;20178;-48
2022/08/02 00:21:02;;;;;;;8.67;1.97;;;18.70;99.90;;;;;;5237993;28;20682;-49
2022/08/02 00:23:33;;;;;;;1.93;1.87;;;18.70;99.90;;;;;;5267013;28;20183;-49
2022/08/02 00:26:04;;;;;;;1.77;1.60;;;18.70;99.90;;;;;;5257566;28;20210;-48
2022/08/02 00:28:34;;;;;;;1.83;1.73;;;18.80;99.90;;;;;;5598176;22;20330;-48
2022/08/02 00:31:05;;;;;;;4.13;1.97;;;18.80;99.90;;;;;;5252897;28;20734;-45
2022/08/02 00:33:35;;;;;;;2.67;1.97;;;18.80;99.90;;;;;;5254471;28;20490;-47
2022/08/02 00:36:06;;;;;;;12.33;2.57;;;18.80;99.90;;;;;;5254795;28;20209;-50
2022/08/02 00:38:37;;;;;;;5.03;2.07;;;18.80;99.90;;;;;;5259506;28;20197;-48
2022/08/02 00:41:13;;;;;;;3.00;1.90;;;18.80;99.90;;;;;;5226339;28;20300;-47
2022/08/02 00:43:44;;;;;;;5.60;2.13;;;18.70;99.90;;;;;;5243133;28;20189;-48
2022/08/02 00:46:16;;;;;;;3.77;2.13;;;18.70;99.90;;;;;;5248658;28;20439;-49
2022/08/02 00:48:48;;;;;;;7.77;2.13;;;18.60;99.90;;;;;;5249463;28;20451;-48
2022/08/02 00:51:18;;;;;;;2.80;2.00;;;18.60;99.90;;;;;;5261986;28;20436;-47
2022/08/02 00:53:49;;;;;;;2.90;1.80;;;18.60;99.90;;;;;;5245373;28;20807;-48
2022/08/02 00:56:19;;;;;;;3.50;1.80;;;18.60;99.90;;;;;;5225387;28;20204;-48
2022/08/02 00:58:50;;;;;;;1.80;1.70;;;18.50;99.90;;;;;;5246086;28;20284;-48
2022/08/02 01:01:37;;;;;;;2.03;1.83;;;18.60;99.90;;;;;;5250992;28;20221;-48
2022/08/02 01:04:10;;;;;;;5.70;1.63;;;18.50;99.90;;;;;;5259286;28;20336;-49
2022/08/02 01:06:41;;;;;;;10.67;2.03;;;18.50;99.90;;;;;;5256036;28;20799;-47
2022/08/02 01:09:12;;;;;;;3.53;2.17;;;18.40;99.90;;;;;;5236918;28;20456;-48
2022/08/02 01:11:42;;;;;;;2.37;2.17;;;18.40;99.90;;;;;;5233256;28;20797;-48
2022/08/02 01:14:14;;;;;;;9.27;2.50;;;18.40;99.90;;;;;;5261036;28;20190;-48
2022/08/02 01:16:54;;;;;;;3.67;1.87;;;18.30;99.90;;;;;;5230403;28;20204;-49
2022/08/02 01:19:47;;;;;;;3.00;2.07;;;18.30;99.90;;;;;;5240019;28;20822;-47
2022/08/02 01:22:27;;;;;;;1.90;1.77;;;18.30;99.90;;;;;;5250607;28;20424;-48
2022/08/02 01:25:32;;;;;;;4.93;2.00;;;18.30;99.90;;;;;;5235786;28;20439;-48
2022/08/02 01:28:17;;;;;;;4.20;2.23;;;18.30;99.90;;;;;;5214128;28;20443;-48
2022/08/02 01:30:57;;;;;;;5.60;1.90;;;18.30;99.90;;;;;;5247633;28;20791;-49
2022/08/02 01:33:35;;;;;;;2.30;1.70;;;18.30;99.90;;;;;;5237095;28;20443;-48
2022/08/02 01:36:10;;;;;;;2.63;2.17;;;18.20;99.90;;;;;;5259663;28;20463;-48
2022/08/02 01:38:46;;;;;;;3.83;2.00;;;18.20;99.90;;;;;;5253772;28;20967;-48
2022/08/02 01:41:23;;;;;;;4.37;2.00;;;18.20;99.90;;;;;;5259988;28;20445;-49
2022/08/02 01:43:57;;;;;;;4.50;2.27;;;18.20;99.90;;;;;;5267842;28;20835;-49
2022/08/02 01:46:29;;;;;;;11.13;2.20;;;18.10;99.90;;;;;;5249348;28;20805;-47
2022/08/02 01:49:04;;;;;;;5.40;1.93;;;18.10;99.90;;;;;;5256209;28;20959;-47
2022/08/02 01:54:30;;;;;;;2.77;2.10;;;18.10;99.90;;;;;;5259640;28;20431;-48
2022/08/02 01:57:04;;;;;;;6.80;1.73;;;18.20;99.90;;;;;;5240512;28;21467;-48
2022/08/02 01:59:36;;;;;;;4.53;3.30;;;18.20;99.90;;;;;;5241093;28;20446;-48
2022/08/02 02:02:08;;;;;;;3.13;1.70;;;18.20;99.90;;;;;;5251151;28;20420;-49
2022/08/02 02:04:39;;;;;;;2.83;1.50;;;18.20;99.90;;;;;;5233010;28;20459;-48
2022/08/02 02:07:14;;;;;;;6.40;2.30;;;18.20;99.90;;;;;;5256107;28;20434;-48
2022/08/02 02:09:45;;;;;;;4.00;2.10;;;18.20;99.90;;;;;;5260657;28;20947;-49
2022/08/02 02:12:18;;;;;;;2.93;2.20;;;18.20;99.90;;;;;;5265193;28;20431;-49
2022/08/02 02:14:49;;;;;;;4.83;2.20;;;18.20;99.90;;;;;;5245219;28;20557;-48
2022/08/02 02:17:21;;;;;;;1.67;1.57;;;18.30;99.90;;;;;;5252115;28;20448;-48
2022/08/02 02:19:54;;;;;;;4.37;1.93;;;18.30;99.90;;;;;;5250290;28;20967;-47
2022/08/02 02:22:25;;;;;;;6.10;1.47;;;18.30;99.90;;;;;;5244712;28;20747;-48
2022/08/02 02:24:55;;;;;;;2.60;1.73;;;18.30;99.90;;;;;;5232687;28;20443;-48
2022/08/02 02:27:27;;;;;;;2.70;1.40;;;18.40;99.90;;;;;;5267695;28;20189;-48
2022/08/02 02:29:58;;;;;;;2.80;1.50;;;18.40;99.90;;;;;;5262172;28;20225;-47
2022/08/02 02:32:30;;;;;;;1.73;1.63;;;18.50;99.90;;;;;;5257286;28;20420;-48
2022/08/02 02:35:03;;;;;;;5.83;2.67;;;18.40;99.90;;;;;;5251612;28;20448;-47
2022/08/02 02:37:36;;;;;;;4.87;1.70;;;18.40;99.90;;;;;;5251019;28;20430;-48
2022/08/02 02:40:07;;;;;;;1.87;1.77;;;18.30;99.90;;;;;;5216441;28;20916;-47
2022/08/02 02:42:40;;;;;;;3.70;1.50;;;18.40;99.90;;;;;;5237988;28;20436;-48
2022/08/02 02:45:12;;;;;;;3.80;1.70;;;18.40;99.90;;;;;;5252837;28;20462;-48
2022/08/02 02:47:43;;;;;;;2.40;1.40;;;18.40;99.90;;;;;;5254486;28;20412;-47
2022/08/02 02:50:15;;;;;;;8.10;2.00;;;18.40;99.90;;;;;;5252704;28;20519;-47
2022/08/02 02:52:47;;;;;;;1.80;1.67;;;18.50;99.90;;;;;;5244205;28;20210;-48
2022/08/02 02:55:18;;;;;;;2.80;1.70;;;18.50;99.90;;;;;;5254532;28;20453;-47
2022/08/02 02:57:49;;;;;;;1.60;1.50;;;18.50;99.90;;;;;;5253925;28;20497;-48
2022/08/02 03:01:26;;;;;;;4.77;1.73;;;18.50;99.90;;;;;;5232967;28;20226;-47
2022/08/02 03:03:12;;;;;;;3.03;1.83;;;18.60;99.90;;;;;;5261902;28;20471;-48
2022/08/02 03:05:44;;;;;;;1.50;1.40;;;18.50;99.90;;;;;;5245447;28;20455;-49
2022/08/02 03:08:14;;;;;;;5.07;1.63;;;18.50;99.90;;;;;;5248875;28;20412;-48
2022/08/02 03:10:46;;;;;;;3.67;2.10;;;18.40;99.90;;;;;;5249261;28;20428;-48
2022/08/02 03:13:18;;;;;;;7.83;1.83;;;18.40;99.90;;;;;;5249833;28;20190;-47
2022/08/02 03:15:54;;;;;;;3.07;2.13;;;18.30;99.90;;;;;;5222931;28;20552;-47
2022/08/02 03:18:36;;;;;;;1.47;1.37;;;18.20;99.90;;;;;;5258211;28;20450;-47
2022/08/02 03:21:10;;;;;;;1.77;1.60;;;18.10;99.90;;;;;;5257200;28;20440;-48
2022/08/02 03:23:42;;;;;;;6.63;1.93;;;18.00;99.90;;;;;;5263396;28;20414;-48
2022/08/02 03:26:13;;;;;;;4.60;1.83;;;17.90;99.90;;;;;;5262571;28;20415;-47
2022/08/02 03:28:43;;;;;;;7.23;2.80;;;17.80;99.90;;;;;;5252045;28;20509;-48
2022/08/02 03:31:14;;;;;;;2.00;1.90;;;17.70;99.90;;;;;;5245111;28;20476;-48
2022/08/02 03:33:45;;;;;;;4.60;2.40;;;17.70;99.90;;;;;;5257158;28;20189;-47
2022/08/02 03:36:20;;;;;;;4.43;2.00;;;17.60;99.90;;;;;;5241116;28;20241;-47
2022/08/02 03:38:51;;;;;;;2.97;2.50;;;17.50;99.90;;;;;;5254192;28;20447;-47
2022/08/02 03:41:23;;;;;;;3.93;2.10;;;17.50;99.90;;;;;;5269691;28;20416;-48
2022/08/02 03:43:55;;;;;;;5.97;2.60;;;17.50;99.90;;;;;;5235576;28;20528;-48
2022/08/02 03:46:26;;;;;;;2.27;2.07;;;17.40;99.90;;;;;;5255281;28;20538;-48
2022/08/02 03:48:57;;;;;;;5.33;2.70;;;17.40;99.90;;;;;;5261200;28;20466;-48
2022/08/02 03:51:28;;;;;;;3.50;1.60;;;17.40;99.90;;;;;;5265300;28;20494;-48
2022/08/02 03:54:00;;;;;;;2.93;1.80;;;17.40;99.90;;;;;;5256942;28;20179;-47
2022/08/02 03:56:31;;;;;;;6.33;2.47;;;17.40;99.90;;;;;;5267506;28;20209;-47
2022/08/02 03:59:13;;;;;;;4.23;1.87;;;17.40;99.90;;;;;;5261886;28;20458;-47
2022/08/02 04:01:43;;;;;;;10.03;2.80;;;17.50;99.90;;;;;;5244296;28;20229;-55
2022/08/02 04:04:14;;;;;;;2.93;2.10;;;17.70;99.90;;;;;;5249172;28;20958;-47
2022/08/02 04:06:44;;;;;;;5.30;2.00;;;17.80;99.90;;;;;;5249711;28;20178;-48
2022/08/02 04:09:15;;;;;;;1.80;1.70;;;17.90;99.90;;;;;;5255599;28;20237;-48
2022/08/02 04:11:45;;;;;;;5.77;2.40;;;18.00;99.90;;;;;;5247251;28;20200;-49
2022/08/02 04:14:16;;;;;;;4.00;2.10;;;18.00;99.90;;;;;;5260372;28;20264;-47
2022/08/02 04:16:51;;;;;;;3.10;2.00;;;18.10;99.90;;;;;;5234464;28;20282;-48
2022/08/02 04:19:30;;;;;;;1.90;1.63;;;18.20;99.90;;;;;;5267249;28;20509;-47
2022/08/02 04:22:05;;;;;;;5.77;2.80;;;18.20;99.90;;;;;;5261400;28;20494;-48
2022/08/02 04:24:43;;;;;;;3.60;2.23;;;18.30;99.90;;;;;;5248671;28;20436;-47
2022/08/02 04:27:14;;;;;;;4.97;2.23;;;18.20;99.90;;;;;;5233014;28;20443;-48
2022/08/02 04:29:46;;;;;;;4.90;1.77;;;18.30;99.90;;;;;;5196441;28;1478634;-49
2022/08/02 04:32:17;;;;;;;4.10;1.90;;;18.20;99.90;;;;;;5229894;28;20214;-49
2022/08/02 04:34:48;;;;;;;9.10;2.17;;;18.20;99.90;;;;;;5252771;28;20628;-47
2022/08/02 04:37:19;;;;;;;6.13;1.97;;;18.20;99.90;;;;;;5230753;28;20634;-48
2022/08/02 04:39:50;;;;;;;11.73;2.40;;;18.20;99.90;;;;;;5254245;28;20255;-49
2022/08/02 04:42:22;;;;;;;2.73;2.10;;;18.30;99.90;;;;;;5247956;28;20680;-48
2022/08/02 04:44:53;;;;;;;5.50;2.07;;;18.40;99.90;;;;;;5256034;28;20186;-49
2022/08/02 04:47:23;;;;;;;4.00;2.03;;;18.50;99.90;;;;;;5259384;28;20439;-49
2022/08/02 04:49:54;;;;;;;2.13;1.90;;;18.40;99.90;;;;;;5253377;28;20452;-48
2022/08/02 04:52:25;;;;;;;5.03;2.77;;;18.40;99.90;;;;;;5232804;28;20189;-48
2022/08/02 04:54:55;;;;;;;4.27;2.53;;;18.50;99.90;;;;;;5234508;28;20576;-48
2022/08/02 05:00:15;;;;;;;1.93;1.83;;;18.60;99.90;;;;;;5248186;28;20273;-54
2022/08/02 05:02:46;;;;;;;7.50;3.00;;;18.60;99.90;;;;;;5254349;28;20435;-48
2022/08/02 05:05:17;;;;;;;5.57;2.67;;;18.60;99.90;;;;;;5256991;28;20552;-47
2022/08/02 05:07:47;;;;;;;6.67;2.10;;;18.70;99.90;;;;;;5231847;28;20435;-48
2022/08/02 05:10:18;;;;;;;4.97;2.73;;;18.80;99.90;;;;;;5250343;28;20206;-49
2022/08/02 05:12:49;;;;;;;7.43;2.13;;;19.00;99.90;;;;;;5251282;28;20174;-47
2022/08/02 05:15:20;;;;;;;5.50;2.13;;;19.30;99.90;;;;;;5241730;28;20205;-48
2022/08/02 05:17:50;;;;;;;3.47;2.90;;;19.50;99.90;;;;;;5240885;28;20848;-46
2022/08/02 05:20:21;;;;;;;5.80;3.53;;;19.60;99.90;;;;;;5230871;28;20197;-47
2022/08/02 05:22:52;;;;;;;6.50;3.10;;;19.70;99.90;;;;;;5261312;28;20201;-47
2022/08/02 05:25:22;;;;;;;5.20;3.13;;;19.80;99.90;;;;;;5265903;28;20185;-48
2022/08/02 05:27:53;;;;;;;8.47;3.17;;;20.40;99.90;;;;;;5244055;28;20653;-47
2022/08/02 05:30:23;;;;;;;3.10;2.90;;;20.70;99.90;;;;;;5243302;28;20224;-49
2022/08/02 05:32:54;;;;;;;10.03;3.13;;;21.10;99.90;;;;;;5254394;28;20189;-48
2022/08/02 05:35:25;;;;;;;4.17;2.57;;;22.10;99.90;;;;;;5249565;28;20197;-49
2022/08/02 05:37:56;;;;;;;3.37;2.10;;;24.50;96.20;;;;;;5246508;28;20768;-48
2022/08/02 05:40:26;;;;;;;10.70;3.07;;;26.20;79.00;;;;;;5248111;28;20312;-48
2022/08/02 05:42:57;;;;;;;8.93;2.90;;;27.40;66.40;;;;;;5263559;28;20197;-49
2022/08/02 05:45:33;;;;;;;3.27;2.10;;;28.60;57.40;;;;;;5266294;28;20178;-49
2022/08/02 05:48:04;;;;;;;6.67;2.50;;;30.20;51.00;;;;;;5272027;28;20181;-48
2022/08/02 05:50:38;;;;;;;2.80;2.60;;;31.70;45.60;;;;;;5251646;28;20455;-49
2022/08/02 05:53:22;;;;;;;10.67;2.63;;;32.60;42.70;;;;;;5268271;28;20220;-49
2022/08/02 05:56:23;;;;;;;3.07;2.07;;;33.50;40.70;;;;;;5253550;28;20505;-48
2022/08/02 05:59:12;;;;;;;5.50;3.03;;;33.90;38.20;;;;;;5237113;28;20459;-49
2022/08/02 06:01:47;;;;;;;7.90;3.00;;;34.00;37.50;;;;;;5252012;28;20481;-50
2022/08/02 06:04:25;;;;;;;2.27;2.13;;;34.30;35.50;;;;;;5260514;28;20203;-49
2022/08/02 06:07:01;;;;;;;2.90;2.70;;;33.90;35.50;;;;;;5242864;28;20192;-49
2022/08/02 06:09:33;;;;;;;4.23;1.90;;;34.30;35.60;;;;;;5241138;28;20211;-49
2022/08/02 06:12:06;;;;;;;12.73;3.00;;;35.40;32.60;;;;;;5240229;28;20201;-49
2022/08/02 06:14:38;;;;;;;6.28;2.97;;;36.10;31.60;;;;;;5260461;28;20197;-49
2022/08/02 06:17:10;;;;;;;4.50;2.22;;;36.90;30.70;;;;;;5250818;28;20181;-50
2022/08/02 06:19:42;;;;;;;15.45;3.00;;;37.70;29.20;;;;;;5253308;28;20209;-49
2022/08/02 06:22:14;;;;;;;4.05;2.80;;;38.40;27.50;;;;;;5262710;28;20286;-49
2022/08/02 06:24:48;;;;;;;12.07;3.00;;;37.90;27.20;;;;;;5255102;28;20184;-48
2022/08/02 06:27:19;;;;;;;9.50;2.85;;;36.80;27.80;;;;;;5265046;28;20662;-49
2022/08/02 06:30:03;;;;;;;9.52;2.78;;;35.80;29.00;;;;;;5266973;28;20262;-50
2022/08/02 06:32:34;;;;;;;10.35;2.17;;;36.00;29.40;;;;;;5270976;28;20184;-50
2022/08/02 06:35:06;;;;;;;4.18;2.08;;;37.00;28.20;;;;;;5230362;28;20251;-48
2022/08/02 06:38:01;;;;;;;2.97;1.98;;;37.70;27.50;;;;;;5246732;28;20177;-48
2022/08/02 06:40:40;;;;;;;4.03;2.10;;;37.00;27.20;;;;;;5256656;28;20211;-49
2022/08/02 06:43:18;;;;;;;3.75;2.55;;;36.70;27.90;;;;;;5248048;28;20302;-49
2022/08/02 06:45:48;;;;;;;5.80;2.30;;;36.10;28.50;;;;;;5266495;28;20669;-48
2022/08/02 06:48:19;;;;;;;6.23;2.70;;;34.70;29.60;;;;;;5251285;28;20208;-50
2022/08/02 06:50:49;;;;;;;7.07;1.93;;;33.70;30.40;;;;;;5266562;28;20272;-49
2022/08/02 06:53:20;;;;;;;15.10;3.08;;;34.00;31.70;;;;;;5254692;28;20188;-49
2022/08/02 06:58:30;;;;;;;4.20;1.98;;;36.60;28.70;;;;;;5259365;28;20671;-49
2022/08/02 07:01:05;;;;;;;8.02;2.17;;;36.50;28.50;;;;;;5261046;28;20227;-48
2022/08/02 07:03:38;;;;;;;7.03;2.33;;;37.60;27.90;;;;;;5263786;28;20545;-49
2022/08/02 07:06:09;;;;;;;7.43;1.80;;;38.50;26.90;;;;;;5259870;28;20181;-48
2022/08/02 07:08:39;;;;;;;3.17;2.17;;;38.50;26.50;;;;;;5265494;28;20655;-47
2022/08/02 07:11:10;;;;;;;2.35;1.63;;;38.10;26.70;;;;;;5262282;28;20185;-49
2022/08/02 07:13:41;;;;;;;5.05;2.13;;;38.00;27.20;;;;;;5264207;28;20564;-48
2022/08/02 07:16:12;;;;;;;2.15;1.42;;;38.30;26.80;;;;;;5251417;28;20212;-48
2022/08/02 07:18:42;;;;;;;1.40;1.30;;;38.30;26.40;;;;;;5260449;28;20203;-49
2022/08/02 07:21:13;;;;;;;4.45;1.80;;;37.60;27.10;;;;;;5244049;28;20238;-48
2022/08/02 07:23:43;;;;;;;4.03;1.55;;;37.50;26.70;;;;;;5261616;28;20200;-48
2022/08/02 07:26:14;;;;;;;2.20;2.05;;;37.10;27.20;;;;;;5262221;28;20262;-48
2022/08/02 07:28:44;;;;;;;1.98;1.40;;;36.40;27.70;;;;;;5259193;28;20231;-50
2022/08/02 07:31:15;;;;;;;1.75;1.10;;;36.30;28.10;;;;;;5260568;28;20230;-49
2022/08/02 07:33:46;;;;;;;2.53;1.52;;;37.10;27.20;;;;;;5260639;28;20748;-48
2022/08/02 07:36:16;;;;;;;2.80;2.13;;;38.00;26.40;;;;;;5263206;28;20285;-48
2022/08/02 07:38:48;;;;;;;4.32;1.60;;;38.40;26.60;;;;;;5266518;28;20559;-49
2022/08/02 07:41:19;;;;;;;4.20;2.33;;;39.90;25.30;;;;;;5267885;28;20712;-49
2022/08/02 07:43:50;;;;;;;4.78;1.60;;;40.60;24.60;;;;;;5260482;28;20189;-48
2022/08/02 07:46:20;;;;;;;2.50;1.65;;;40.10;24.60;;;;;;5263782;28;20185;-49
2022/08/02 07:48:53;;;;;;;1.55;1.38;;;38.80;24.80;;;;;;5264659;28;20196;-49
2022/08/02 07:51:24;;;;;;;4.90;2.05;;;38.30;25.70;;;;;;5260361;28;20185;-48
2022/08/02 07:53:54;;;;;;;6.00;2.42;;;38.50;25.50;;;;;;5262455;28;20206;-48
2022/08/02 07:56:25;;;;;;;6.57;1.77;;;38.20;25.30;;;;;;5260401;28;20209;-48
2022/08/02 07:58:56;;;;;;;2.17;1.20;;;38.10;25.60;;;;;;5258936;28;20185;-48
2022/08/02 08:01:26;;;;;;;2.63;1.85;;;37.70;25.40;;;;;;5264013;28;20180;-48
2022/08/02 08:03:57;;;;;;;6.65;1.50;;;37.10;26.20;;;;;;5267833;28;20181;-48
2022/08/02 08:06:27;;;;;;;1.77;1.67;;;36.30;26.00;;;;;;5257256;28;20220;-48
2022/08/02 08:08:59;;;;;;;4.70;1.45;;;35.90;26.80;;;;;;5267352;28;20552;-50
2022/08/02 08:11:29;;;;;;;3.75;1.48;;;36.70;26.50;;;;;;5260691;28;20172;-47
2022/08/02 08:14:00;;;;;;;6.75;1.85;;;37.30;25.50;;;;;;5266956;28;20189;-49
2022/08/02 08:16:31;;;;;;;1.45;1.35;;;38.10;25.60;;;;;;5267523;28;20216;-49
2022/08/02 08:19:02;;;;;;;1.77;1.67;;;39.20;25.00;;;;;;5271061;28;20177;-48
2022/08/02 08:21:34;;;;;;;2.05;1.45;;;39.70;24.50;;;;;;5266787;28;20173;-47
2022/08/02 08:24:05;;;;;;;2.10;0.90;;;40.00;24.00;;;;;;5269285;28;20177;-49
2022/08/02 08:26:35;;;;;;;11.70;1.83;;;39.70;24.20;;;;;;5262968;28;20207;-48
2022/08/02 08:29:06;;;;;;;5.47;2.13;;;40.00;24.40;;;;;;5268871;28;20197;-48
2022/08/02 08:31:37;;;;;;;5.90;1.52;;;40.00;24.10;;;;;;5265341;28;20185;-48
2022/08/02 08:34:07;;;;;;;5.30;1.77;;;38.70;24.20;;;;;;5255669;28;20185;-48
2022/08/02 08:36:38;;;;;;;2.83;2.15;;;38.20;25.30;;;;;;5260768;28;20280;-48
2022/08/02 08:39:09;;;;;;;1.83;1.27;;;37.30;25.30;;;;;;5264234;28;20464;-50
2022/08/02 08:41:42;;;;;;;4.15;0.95;;;36.70;26.60;;;;;;5275470;28;20536;-48
2022/08/02 08:44:13;;;;;;;1.83;1.60;;;36.90;26.50;;;;;;5262316;28;20192;-49
2022/08/02 08:46:47;;;;;;;9.30;1.90;;;36.50;26.60;;;;;;5267606;28;20204;-48
2022/08/02 08:49:27;;;;;;;2.85;1.33;;;35.10;27.80;;;;;;5274424;28;20176;-48
2022/08/02 08:52:02;;;;;;;1.55;1.45;;;35.20;28.10;;;;;;5274373;28;20545;-47
2022/08/02 08:54:34;;;;;;;1.48;1.30;;;35.10;28.30;;;;;;5265753;28;20247;-48
2022/08/02 08:57:06;;;;;;;1.23;1.13;;;35.30;28.40;;;;;;5265227;28;20205;-48
2022/08/02 08:59:37;;;;;;;1.67;1.17;;;35.30;28.50;;;;;;5275393;28;20189;-47
2022/08/02 09:02:10;;;;;;;2.13;1.00;;;35.20;28.40;;;;;;5273212;28;20185;-48
2022/08/02 09:04:41;;;;;;;5.07;1.70;;;34.30;29.10;;;;;;5271816;28;20636;-48
2022/08/02 09:07:12;;;;;;;1.80;1.70;;;33.20;30.40;;;;;;5272371;28;20239;-48
2022/08/02 09:09:43;;;;;;;3.30;1.63;;;31.90;31.20;;;;;;5273566;28;20209;-48
2022/08/02 09:12:20;;;;;;;53.03;2.70;;;30.30;34.00;;;;;;5281053;28;20445;-48
2022/08/02 09:14:51;;;;;;;4.13;2.33;;;28.50;36.50;;;;;;5282698;28;20446;-47
2022/08/02 09:17:21;;;;;;;5.80;2.33;;;27.30;38.90;;;;;;5287245;28;20451;-47
2022/08/02 09:20:08;;;;;;;3.90;1.80;;;26.30;40.90;;;;;;5264759;28;20181;-48
2022/08/02 09:22:38;;;;;;;9.87;1.97;;;26.10;41.70;;;;;;5273689;28;20641;-49
2022/08/02 09:25:14;;;;;;;3.23;1.67;;;26.20;42.10;;;;;;5269969;28;20440;-47
2022/08/02 09:27:47;;;;;;;4.27;1.30;;;25.90;41.90;;;;;;5267626;28;20241;-47
2022/08/02 09:30:18;;;;;;;1.53;1.50;;;26.00;42.10;;;;;;5270943;28;20443;-47
2022/08/02 09:32:48;;;;;;;3.43;1.10;;;25.90;42.50;;;;;;5271839;28;20973;-46
2022/08/02 09:35:36;;;;;;;4.10;1.47;;;26.00;42.00;;;;;;5269999;28;20283;-47
2022/08/02 09:38:12;;;;;;;7.60;1.63;;;26.00;41.90;;;;;;5259405;28;20204;-47
2022/08/02 09:40:43;;;;;;;2.03;1.50;;;26.10;42.30;;;;;;5273815;28;20791;-48
2022/08/02 09:43:15;;;;;;;6.20;1.60;;;26.10;42.70;;;;;;5269482;28;20431;-47
2022/08/02 09:45:45;;;;;;;2.20;1.43;;;26.10;42.90;;;;;;5268333;28;20272;-47
2022/08/02 09:48:16;;;;;;;7.13;2.50;;;26.30;42.30;;;;;;5284603;27;20581;-48
2022/08/02 09:50:47;;;;;;;0.70;0.70;;;26.20;42.30;;;;;;5266322;28;20243;-49
2022/08/02 09:53:19;;;;;;;5.07;3.40;;;26.20;42.40;;;;;;5264372;28;20185;-48
2022/08/02 09:55:56;;;;;;;1.20;1.10;;;26.30;42.40;;;;;;5266843;28;20224;-47
2022/08/02 09:58:27;;;;;;;1.70;1.17;;;26.40;41.90;;;;;;5280517;28;20442;-48
2022/08/02 10:01:00;;;;;;;2.73;1.60;;;26.20;42.50;;;;;;5262105;28;20435;-48
2022/08/02 10:03:31;;;;;;;2.00;1.23;;;26.20;42.90;;;;;;5258026;28;20295;-49
2022/08/02 10:06:03;;;;;;;1.47;1.20;;;26.10;43.10;;;;;;5262398;28;20802;-48
2022/08/02 10:08:33;;;;;;;2.27;1.60;;;26.00;43.10;;;;;;5264481;28;20182;-47
2022/08/02 10:11:04;;;;;;;5.20;1.23;;;25.80;43.50;;;;;;5273408;28;20462;-48
2022/08/02 10:13:35;;;;;;;3.40;1.30;;;25.60;43.30;;;;;;5271870;28;20280;-48
2022/08/02 10:16:06;;;;;;;1.53;1.43;;;25.80;43.20;;;;;;5264083;28;20275;-47
2022/08/02 10:18:37;;;;;;;3.60;3.30;;;25.90;43.00;;;;;;5271701;28;20874;-49
2022/08/02 10:21:13;;;;;;;17.10;8.67;;;25.80;43.20;;;;;;5267356;28;20651;-48
2022/08/02 10:23:45;;;;;;;7.57;5.10;;;25.80;43.30;;;;;;5266860;28;20634;-49
2022/08/02 10:26:19;;;;;;;4.80;1.80;;;26.00;43.50;;;;;;5277693;28;20520;-48
2022/08/02 10:28:51;;;;;;;5.33;1.47;;;26.40;42.50;;;;;;5281630;28;20926;-47
2022/08/02 10:31:27;;;;;;;2.47;1.37;;;26.30;42.30;;;;;;5278449;27;20558;-49
2022/08/02 10:34:00;;;;;;;2.13;1.90;;;26.50;42.70;;;;;;5270867;28;20442;-50
2022/08/02 10:36:33;;;;;;;3.50;1.93;;;26.30;42.70;;;;;;5272178;28;20466;-48
2022/08/02 10:39:05;;;;;;;3.80;2.13;;;26.20;42.70;;;;;;5270427;28;20443;-48
2022/08/02 10:41:40;;;;;;;8.80;2.43;;;26.20;43.00;;;;;;5267945;28;20419;-49
2022/08/02 10:44:25;;;;;;;6.03;3.47;;;26.20;42.90;;;;;;5269781;28;20465;-48
2022/08/02 10:47:18;;;;;;;13.40;7.80;;;26.20;42.20;;;;;;5262327;28;20448;-48
2022/08/02 10:49:51;;;;;;;20.03;11.20;;;26.50;41.70;;;;;;5260267;28;20958;-49
2022/08/02 10:52:25;;;;;;;2.53;2.27;;;26.60;41.80;;;;;;5267391;28;20504;-49
2022/08/02 10:55:02;;;;;;;2.50;1.20;;;26.60;42.00;;;;;;5280883;28;20435;-48
2022/08/02 10:57:36;;;;;;;8.43;1.30;;;26.60;41.80;;;;;;5286909;27;21028;-49
2022/08/02 11:00:12;;;;;;;3.03;1.60;;;26.30;42.00;;;;;;5289295;28;20422;-49
2022/08/02 11:02:45;;;;;;;3.30;1.50;;;26.20;42.40;;;;;;5281026;28;20434;-47
2022/08/02 11:05:25;;;;;;;2.10;1.50;;;26.00;43.30;;;;;;5281505;28;20487;-49
2022/08/02 11:07:56;;;;;;;2.40;1.60;;;26.00;43.30;;;;;;5281552;28;20483;-50
2022/08/02 11:10:37;;;;;;;2.87;1.40;;;25.90;43.10;;;;;;5287297;27;20466;-48
2022/08/02 11:13:13;;;;;;;4.37;1.20;;;25.70;42.60;;;;;;5283926;28;20443;-48
2022/08/02 11:15:51;;;;;;;2.27;1.23;;;25.50;42.70;;;;;;5274357;28;20478;-49
2022/08/02 11:18:42;;;;;;;3.73;1.70;;;25.30;43.50;;;;;;5278809;28;20952;-49
2022/08/02 11:21:22;;;;;;;1.43;1.20;;;25.30;43.60;;;;;;5275869;28;20438;-49
2022/08/02 11:23:53;;;;;;;4.63;1.23;;;25.60;43.80;;;;;;5274422;27;20450;-48
2022/08/02 11:26:30;;;;;;;3.17;2.67;;;25.80;43.50;;;;;;5266491;28;20545;-48
2022/08/02 11:29:03;;;;;;;8.60;4.80;;;25.90;42.60;;;;;;5284093;28;20445;-48
2022/08/02 11:31:39;;;;;;;9.13;3.57;;;25.90;42.60;;;;;;5290895;27;20514;-50
2022/08/02 11:34:10;;;;;;;4.07;1.17;;;25.80;42.90;;;;;;5277881;28;20442;-49
2022/08/02 11:36:49;;;;;;;17.83;9.93;;;25.80;42.20;;;;;;5266721;28;21028;-48
2022/08/02 11:39:21;;;;;;;3.47;2.53;;;25.50;43.20;;;;;;5272261;28;20177;-47
2022/08/02 11:41:57;;;;;;;2.03;1.37;;;25.60;42.80;;;;;;5289331;27;20435;-47
2022/08/02 11:44:29;;;;;;;1.87;0.97;;;25.70;42.50;;;;;;5265075;28;20435;-47
2022/08/02 11:47:01;;;;;;;4.43;1.63;;;26.20;41.40;;;;;;5286120;28;21001;-48
2022/08/02 11:49:32;;;;;;;1.20;1.20;;;26.20;41.50;;;;;;5286784;28;20442;-48
2022/08/02 11:52:05;;;;;;;1.27;1.13;;;26.50;40.30;;;;;;5291388;27;20442;-49
2022/08/02 11:54:39;;;;;;;2.70;1.50;;;26.40;41.10;;;;;;5269715;28;20181;-47
2022/08/02 11:57:17;;;;;;;1.13;1.10;;;26.30;41.10;;;;;;5275630;28;20826;-48
2022/08/02 11:59:50;;;;;;;0.87;0.87;;;26.20;41.30;;;;;;5266308;28;20438;-48
2022/08/02 12:02:31;;;;;;;1.93;1.80;;;26.40;41.10;;;;;;5279649;28;20446;-49
2022/08/02 12:05:05;;;;;;;3.37;1.33;;;26.30;41.00;;;;;;5277126;28;20439;-50
2022/08/02 12:07:37;;;;;;;3.93;1.60;;;26.10;41.00;;;;;;5277649;28;20450;-48
2022/08/02 12:10:10;;;;;;;6.90;1.70;;;26.10;40.60;;;;;;5260616;28;20446;-48
2022/08/02 12:12:57;;;;;;;7.03;1.90;;;26.10;40.90;;;;;;5289709;27;20433;-48
2022/08/02 12:15:40;;;;;;;1.80;1.60;;;26.10;40.50;;;;;;5288225;27;20462;-48
2022/08/02 12:21:25;;;;;;;1.03;1.03;;;26.20;40.40;;;;;;5280777;28;20457;-48
2022/08/02 12:23:56;;;;;;;1.20;1.20;;;26.40;39.80;;;;;;5285688;27;20438;-48
2022/08/02 12:26:28;;;;;;;7.77;1.43;;;26.30;40.00;;;;;;5288690;27;20935;-48
2022/08/02 12:29:00;;;;;;;3.60;1.13;;;26.30;40.40;;;;;;5276526;28;20187;-49
2022/08/02 12:31:46;;;;;;;2.43;1.63;;;26.30;40.50;;;;;;5268298;28;20441;-48
2022/08/02 12:34:19;;;;;;;1.63;1.53;;;26.30;39.70;;;;;;5257208;28;20487;-48
2022/08/02 12:36:57;;;;;;;4.40;1.87;;;26.10;40.10;;;;;;5266644;28;20465;-48
2022/08/02 12:39:36;;;;;;;1.30;1.27;;;25.90;40.10;;;;;;5265924;28;20484;-49
2022/08/02 12:42:09;;;;;;;2.60;1.60;;;25.80;40.40;;;;;;5268641;28;20423;-48
2022/08/02 12:44:57;;;;;;;5.50;2.03;;;25.70;40.60;;;;;;5287238;27;20438;-47
2022/08/02 12:47:28;;;;;;;4.33;2.10;;;26.00;40.90;;;;;;5284693;27;20450;-48
2022/08/02 12:50:17;;;;;;;3.33;1.50;;;26.00;41.20;;;;;;5283901;28;20930;-50
2022/08/02 12:52:48;;;;;;;5.97;1.20;;;26.30;40.60;;;;;;5281075;28;20577;-48
2022/08/02 12:55:24;;;;;;;2.43;1.53;;;26.30;40.60;;;;;;5280203;28;20509;-49
2022/08/02 12:58:01;;;;;;;1.53;1.13;;;26.20;40.00;;;;;;5193370;22;20500;-46
2022/08/02 13:00:35;;;;;;;1.90;1.50;;;26.20;40.50;;;;;;5215362;28;20470;-47
2022/08/02 13:03:07;;;;;;;1.77;0.97;;;26.20;40.50;;;;;;5135713;28;20437;-47
2022/08/02 13:05:37;;;;;;;6.37;2.10;;;26.30;40.70;;;;;;5128066;28;20540;-47
2022/08/02 13:08:08;;;;;;;9.00;6.07;;;26.30;40.60;;;;;;5136218;28;20928;-46
2022/08/02 13:10:38;;;;;;;3.70;2.37;;;26.30;40.80;;;;;;5134459;28;20189;-47
2022/08/02 13:13:09;;;;;;;1.70;1.60;;;26.20;40.90;;;;;;5140488;28;20185;-47
2022/08/02 13:15:41;;;;;;;3.40;2.07;;;26.10;41.00;;;;;;5150886;28;20209;-47
2022/08/02 13:18:11;;;;;;;1.93;1.33;;;26.10;40.90;;;;;;5140745;28;20811;-47
2022/08/02 13:20:42;;;;;;;9.57;2.20;;;26.20;41.20;;;;;;5135072;28;20460;-48
2022/08/02 13:23:13;;;;;;;5.60;1.80;;;26.60;40.90;;;;;;5137118;28;20186;-47
2022/08/02 13:25:44;;;;;;;1.67;1.57;;;26.60;40.20;;;;;;5140657;28;20255;-48
2022/08/02 13:28:15;;;;;;;1.67;1.57;;;26.60;40.20;;;;;;5135018;28;20465;-48